Time;durP1;ratioP1;P1;durP2;ratioP2;P2;SDS_P1;SDS_P2;PMS_P1;PMS_P2;Temp;Humidity;BMP_temperature;BMP_pressure;BME280_temperature;BME280_humidity;BME280_pressure;Samples;Min_cycle;Max_cycle;Signal;HPM_P1;HPM_P2
2022/02/17 00:01:53;;;;;;;2.10;1.90;;;10.30;99.90;;;;;;468273;254;28426;-76
2022/02/17 00:03:54;;;;;;;1.70;1.60;;;10.30;99.90;;;;;;468280;254;28094;-76
2022/02/17 00:05:56;;;;;;;1.73;1.63;;;10.30;99.90;;;;;;468230;254;28370;-76
2022/02/17 00:07:57;;;;;;;1.73;1.63;;;10.30;99.90;;;;;;468223;254;27943;-75
2022/02/17 00:09:58;;;;;;;2.10;1.53;;;10.30;99.90;;;;;;468259;254;27827;-76
2022/02/17 00:11:59;;;;;;;1.53;1.43;;;10.30;99.90;;;;;;468266;254;27939;-76
2022/02/17 00:14:00;;;;;;;1.47;1.47;;;10.40;99.90;;;;;;468259;254;27986;-76
2022/02/17 00:16:01;;;;;;;3.03;1.43;;;10.40;99.90;;;;;;468250;254;28039;-76
2022/02/17 00:18:03;;;;;;;1.60;1.50;;;10.40;99.90;;;;;;468271;254;27939;-76
2022/02/17 00:20:04;;;;;;;1.47;1.40;;;10.40;99.90;;;;;;468248;254;27953;-76
2022/02/17 00:22:05;;;;;;;1.80;1.70;;;10.40;99.90;;;;;;468281;254;27796;-76
2022/02/17 00:24:06;;;;;;;1.40;1.40;;;10.40;99.90;;;;;;468202;254;27793;-76
2022/02/17 00:26:08;;;;;;;1.70;1.40;;;10.30;99.90;;;;;;468269;254;28471;-76
2022/02/17 00:28:09;;;;;;;1.10;1.10;;;10.40;99.90;;;;;;468244;254;28659;-76
2022/02/17 00:30:10;;;;;;;1.40;1.40;;;10.40;99.90;;;;;;468258;254;29237;-76
2022/02/17 00:32:11;;;;;;;1.00;1.00;;;10.40;99.90;;;;;;468286;254;27904;-75
2022/02/17 00:34:13;;;;;;;1.00;1.00;;;10.30;99.90;;;;;;468269;254;27973;-76
2022/02/17 00:36:14;;;;;;;1.60;1.50;;;10.40;99.90;;;;;;468269;254;27925;-76
2022/02/17 00:38:15;;;;;;;1.20;1.20;;;10.40;99.90;;;;;;468259;254;27875;-76
2022/02/17 00:40:16;;;;;;;1.50;1.40;;;10.40;99.90;;;;;;468282;254;28469;-76
2022/02/17 00:42:18;;;;;;;1.30;1.20;;;10.40;99.90;;;;;;468277;254;27955;-75
2022/02/17 00:44:19;;;;;;;1.20;1.20;;;10.30;99.90;;;;;;468281;254;28061;-76
2022/02/17 00:46:20;;;;;;;1.37;1.20;;;10.30;99.90;;;;;;468257;254;28019;-76
2022/02/17 00:48:21;;;;;;;1.23;1.23;;;10.40;99.90;;;;;;468257;254;27676;-76
2022/02/17 00:50:23;;;;;;;1.30;1.20;;;10.40;99.90;;;;;;468283;254;28428;-77
2022/02/17 00:52:26;;;;;;;1.40;1.40;;;10.40;99.90;;;;;;468256;254;28587;-75
2022/02/17 00:54:26;;;;;;;1.40;1.30;;;;;;;;;;468214;254;28438;-76
2022/02/17 00:56:27;;;;;;;1.20;1.20;;;10.40;99.90;;;;;;468256;254;27721;-75
2022/02/17 00:58:28;;;;;;;1.30;1.30;;;10.40;99.90;;;;;;468298;254;27815;-75
2022/02/17 01:00:30;;;;;;;1.80;1.33;;;10.40;99.90;;;;;;468262;254;27906;-77
2022/02/17 01:02:31;;;;;;;1.23;1.23;;;10.40;99.90;;;;;;468266;254;27850;-76
2022/02/17 01:04:32;;;;;;;1.27;1.17;;;10.50;99.90;;;;;;468316;254;28343;-76
2022/02/17 01:06:38;;;;;;;3.90;1.40;;;10.50;99.90;;;;;;468281;254;28457;-78
2022/02/17 01:08:35;;;;;;;1.50;1.40;;;10.50;99.90;;;;;;468011;254;29859;-75
2022/02/17 01:10:36;;;;;;;1.20;1.20;;;10.50;99.90;;;;;;468296;254;28163;-77
2022/02/17 01:12:38;;;;;;;1.67;1.30;;;;;;;;;;468290;254;27971;-76
2022/02/17 01:14:39;;;;;;;1.50;1.40;;;10.50;99.90;;;;;;468310;254;27484;-76
2022/02/17 01:16:42;;;;;;;1.30;1.30;;;;;;;;;;468301;254;27908;-76
2022/02/17 01:18:43;;;;;;;1.70;1.60;;;10.40;99.90;;;;;;468279;254;28128;-76
2022/02/17 01:20:46;;;;;;;1.33;1.30;;;10.50;99.90;;;;;;468293;254;28468;-76
2022/02/17 01:22:45;;;;;;;1.50;1.40;;;10.40;99.90;;;;;;468152;254;28340;-77
2022/02/17 01:24:46;;;;;;;1.70;1.53;;;10.50;99.90;;;;;;468293;254;27686;-76
2022/02/17 01:26:48;;;;;;;2.00;1.80;;;10.50;99.90;;;;;;468265;254;28071;-77
2022/02/17 01:28:49;;;;;;;1.50;1.50;;;10.50;99.90;;;;;;468187;251;27882;-76
2022/02/17 01:30:50;;;;;;;1.70;1.60;;;10.50;99.90;;;;;;468201;254;28173;-76
2022/02/17 01:32:51;;;;;;;1.60;1.50;;;10.50;99.90;;;;;;468273;254;27896;-76
2022/02/17 01:34:53;;;;;;;1.70;1.60;;;10.50;99.90;;;;;;468295;254;27694;-76
2022/02/17 01:36:54;;;;;;;1.97;1.87;;;10.50;99.90;;;;;;468255;254;28061;-76
2022/02/17 01:38:55;;;;;;;1.83;1.73;;;10.50;99.90;;;;;;468325;254;28440;-76
2022/02/17 01:40:56;;;;;;;1.60;1.50;;;10.50;99.90;;;;;;468245;254;28489;-76
2022/02/17 01:42:58;;;;;;;3.20;1.50;;;10.50;99.90;;;;;;468219;254;28227;-76
2022/02/17 01:44:59;;;;;;;1.77;1.20;;;10.50;99.90;;;;;;468279;254;28209;-76
2022/02/17 01:47:00;;;;;;;1.40;1.30;;;10.50;99.90;;;;;;468286;254;27959;-76
2022/02/17 01:49:01;;;;;;;1.60;1.50;;;10.50;99.90;;;;;;468282;254;27848;-76
2022/02/17 01:51:03;;;;;;;1.43;1.33;;;10.50;99.90;;;;;;468291;254;27677;-76
2022/02/17 01:53:04;;;;;;;1.70;1.60;;;10.50;99.90;;;;;;468292;254;28033;-76
2022/02/17 01:55:05;;;;;;;1.40;1.40;;;10.50;99.90;;;;;;468219;254;27798;-76
2022/02/17 01:57:06;;;;;;;1.67;1.57;;;10.50;99.90;;;;;;468270;254;27972;-76
2022/02/17 01:59:08;;;;;;;1.70;1.60;;;10.50;99.90;;;;;;468274;254;28032;-76
2022/02/17 02:01:09;;;;;;;1.73;1.63;;;10.60;99.90;;;;;;468285;254;28004;-75
2022/02/17 02:03:10;;;;;;;2.10;1.60;;;10.60;99.90;;;;;;468338;254;27747;-76
2022/02/17 02:05:11;;;;;;;1.67;1.57;;;10.60;99.90;;;;;;468333;254;28457;-76
2022/02/17 02:07:13;;;;;;;1.60;1.50;;;10.60;99.90;;;;;;468265;254;28461;-76
2022/02/17 02:09:16;;;;;;;2.10;1.40;;;10.60;99.90;;;;;;468291;254;29213;-77
2022/02/17 02:11:15;;;;;;;1.63;1.53;;;10.60;99.90;;;;;;468198;254;27933;-76
2022/02/17 02:13:17;;;;;;;1.50;1.40;;;10.60;99.90;;;;;;468285;254;27796;-77
2022/02/17 02:15:18;;;;;;;1.70;1.50;;;10.60;99.90;;;;;;468312;254;27951;-76
2022/02/17 02:17:19;;;;;;;1.20;1.20;;;10.70;99.90;;;;;;468275;254;27714;-76
2022/02/17 02:19:20;;;;;;;1.60;1.50;;;10.60;99.90;;;;;;468244;254;28128;-76
2022/02/17 02:21:22;;;;;;;1.57;1.47;;;10.70;99.90;;;;;;468299;254;27810;-76
2022/02/17 02:23:23;;;;;;;1.50;1.40;;;10.70;99.90;;;;;;468277;254;28062;-77
2022/02/17 02:25:25;;;;;;;1.30;1.30;;;10.70;99.90;;;;;;468287;254;28003;-76
2022/02/17 02:27:25;;;;;;;1.50;1.40;;;10.70;99.90;;;;;;468482;254;28043;-77
2022/02/17 02:29:27;;;;;;;1.40;1.40;;;10.70;99.90;;;;;;468529;254;27806;-77
2022/02/17 02:31:28;;;;;;;1.30;1.30;;;10.70;99.90;;;;;;468506;254;28377;-77
2022/02/17 02:33:29;;;;;;;1.30;1.20;;;10.70;99.90;;;;;;468521;254;28118;-76
2022/02/17 02:35:30;;;;;;;1.30;1.20;;;10.70;99.90;;;;;;468590;254;27929;-75
2022/02/17 02:37:32;;;;;;;1.13;1.13;;;10.70;99.90;;;;;;468586;254;28050;-76
2022/02/17 02:39:33;;;;;;;1.47;1.40;;;10.70;99.90;;;;;;468399;254;27945;-76
2022/02/17 02:41:34;;;;;;;1.10;1.10;;;10.70;99.90;;;;;;468378;254;27822;-76
2022/02/17 02:43:38;;;;;;;1.03;1.03;;;10.70;99.90;;;;;;468328;254;27940;-76
2022/02/17 02:45:37;;;;;;;2.03;1.40;;;10.70;99.90;;;;;;468132;254;27886;-76
2022/02/17 02:47:38;;;;;;;0.83;0.83;;;10.70;99.90;;;;;;468393;254;28007;-77
2022/02/17 02:49:39;;;;;;;1.20;1.20;;;10.70;99.90;;;;;;468345;254;28014;-76
2022/02/17 02:51:40;;;;;;;1.10;1.10;;;10.70;99.90;;;;;;468372;254;27958;-76
2022/02/17 02:53:42;;;;;;;0.90;0.90;;;10.70;99.90;;;;;;468621;254;28472;-76
2022/02/17 02:55:43;;;;;;;1.00;0.90;;;10.70;99.90;;;;;;468508;254;28004;-76
2022/02/17 02:57:44;;;;;;;0.97;0.97;;;10.70;99.90;;;;;;468575;254;28170;-76
2022/02/17 02:59:45;;;;;;;1.20;1.10;;;10.70;99.90;;;;;;468579;254;27967;-76
2022/02/17 03:01:47;;;;;;;1.13;0.90;;;10.70;99.90;;;;;;468496;254;28106;-76
2022/02/17 03:03:49;;;;;;;0.80;0.80;;;10.70;99.90;;;;;;468446;254;28416;-76
2022/02/17 03:05:49;;;;;;;0.90;0.90;;;10.70;99.90;;;;;;468430;254;28479;-76
2022/02/17 03:07:52;;;;;;;0.87;0.87;;;10.70;99.90;;;;;;468375;254;28462;-77
2022/02/17 03:09:52;;;;;;;1.03;1.00;;;10.70;99.90;;;;;;468367;254;27943;-76
2022/02/17 03:11:53;;;;;;;0.90;0.90;;;10.70;99.90;;;;;;468417;254;27913;-76
2022/02/17 03:13:55;;;;;;;0.80;0.80;;;10.70;99.90;;;;;;468430;254;27934;-76
2022/02/17 03:15:55;;;;;;;0.90;0.90;;;10.70;99.90;;;;;;468350;254;27911;-77
2022/02/17 03:17:57;;;;;;;0.90;0.90;;;10.70;99.90;;;;;;468345;254;27968;-76
2022/02/17 03:19:58;;;;;;;1.10;1.00;;;10.70;99.90;;;;;;468231;254;28138;-75
2022/02/17 03:21:59;;;;;;;0.80;0.80;;;10.70;99.90;;;;;;468285;254;28006;-76
2022/02/17 03:24:00;;;;;;;1.00;1.00;;;10.70;99.90;;;;;;468299;254;28030;-77
2022/02/17 03:26:02;;;;;;;0.83;0.83;;;10.80;99.90;;;;;;468276;254;27947;-76
2022/02/17 03:28:03;;;;;;;1.00;1.00;;;10.70;99.90;;;;;;468283;254;28421;-76
2022/02/17 03:30:04;;;;;;;1.10;1.00;;;10.70;99.90;;;;;;468231;254;28580;-75
2022/02/17 03:32:05;;;;;;;1.10;1.00;;;10.70;99.90;;;;;;468179;254;28612;-76
2022/02/17 03:34:07;;;;;;;1.57;0.90;;;10.70;99.90;;;;;;468286;254;29113;-75
2022/02/17 03:36:08;;;;;;;1.00;1.00;;;10.80;99.90;;;;;;468338;254;27968;-76
2022/02/17 03:38:09;;;;;;;1.30;1.20;;;10.80;99.90;;;;;;468292;254;27927;-76
2022/02/17 03:40:11;;;;;;;2.67;1.10;;;10.70;99.90;;;;;;468308;254;28018;-75
2022/02/17 03:42:12;;;;;;;1.63;1.10;;;10.70;99.90;;;;;;468296;254;28037;-76
2022/02/17 03:44:13;;;;;;;0.90;0.90;;;10.90;99.90;;;;;;468240;254;28048;-76
2022/02/17 03:46:14;;;;;;;1.00;1.00;;;10.80;99.90;;;;;;468283;254;28152;-76
2022/02/17 03:48:15;;;;;;;1.10;1.10;;;10.90;99.90;;;;;;468268;254;28052;-76
2022/02/17 03:50:17;;;;;;;1.20;1.10;;;10.80;99.90;;;;;;468265;254;28136;-75
2022/02/17 03:52:18;;;;;;;1.27;1.17;;;10.80;99.90;;;;;;468261;254;28425;-76
2022/02/17 03:54:21;;;;;;;3.73;1.20;;;;;;;;;;468273;254;28550;-76
2022/02/17 03:56:22;;;;;;;1.67;1.43;;;10.70;99.90;;;;;;468233;254;26836;-76
2022/02/17 04:00:43;;;;;;;2.30;1.40;;;10.70;99.90;;;;;;468268;254;28417;-76
2022/02/17 04:02:45;;;;;;;1.60;1.50;;;10.70;99.90;;;;;;468273;254;27987;-75
2022/02/17 04:04:46;;;;;;;2.90;1.40;;;10.60;99.90;;;;;;468270;254;28052;-76
2022/02/17 04:06:47;;;;;;;2.30;1.40;;;10.60;99.90;;;;;;468257;254;27661;-75
2022/02/17 04:08:49;;;;;;;2.73;1.40;;;10.50;99.90;;;;;;468199;254;27749;-76
2022/02/17 04:10:50;;;;;;;3.97;1.40;;;10.40;99.90;;;;;;468274;254;28066;-77
2022/02/17 04:12:51;;;;;;;4.10;1.90;;;10.40;99.90;;;;;;468268;254;28014;-76
2022/02/17 04:14:52;;;;;;;2.70;1.40;;;10.40;99.90;;;;;;468272;254;27967;-76
2022/02/17 04:16:54;;;;;;;2.60;1.43;;;10.50;99.90;;;;;;468258;254;28020;-76
2022/02/17 04:18:55;;;;;;;5.50;1.80;;;10.40;99.90;;;;;;468276;254;27805;-76
2022/02/17 04:20:56;;;;;;;3.80;2.30;;;10.40;99.90;;;;;;468117;254;28321;-76
2022/02/17 04:22:57;;;;;;;2.30;1.67;;;10.40;99.90;;;;;;468238;254;28247;-76
2022/02/17 04:24:58;;;;;;;2.93;1.60;;;10.30;99.90;;;;;;468272;254;28209;-76
2022/02/17 04:27:00;;;;;;;4.20;1.93;;;10.20;99.90;;;;;;468254;254;28243;-76
2022/02/17 04:29:01;;;;;;;8.30;3.40;;;10.10;99.90;;;;;;468301;254;27998;-76
2022/02/17 04:31:02;;;;;;;6.10;1.90;;;10.10;99.90;;;;;;468293;254;27968;-77
2022/02/17 04:33:03;;;;;;;6.33;2.37;;;10.00;99.90;;;;;;468291;254;27557;-76
2022/02/17 04:35:05;;;;;;;10.33;2.20;;;10.00;99.90;;;;;;468312;254;27966;-76
2022/02/17 04:37:06;;;;;;;6.10;1.80;;;9.90;99.90;;;;;;468296;254;28048;-76
2022/02/17 04:39:07;;;;;;;6.43;2.10;;;9.90;99.90;;;;;;468317;254;27564;-76
2022/02/17 04:43:28;;;;;;;6.27;2.13;;;9.90;99.90;;;;;;468289;254;28271;-76
2022/02/17 04:45:29;;;;;;;4.63;1.80;;;9.80;99.90;;;;;;468266;254;28617;-77
2022/02/17 04:47:31;;;;;;;4.17;1.93;;;9.70;99.90;;;;;;468320;254;28436;-77
2022/02/17 04:49:32;;;;;;;8.60;2.50;;;9.70;99.90;;;;;;468292;254;28243;-77
2022/02/17 04:51:33;;;;;;;6.83;2.47;;;9.70;99.90;;;;;;468276;254;27963;-76
2022/02/17 04:53:34;;;;;;;8.57;2.20;;;9.60;99.90;;;;;;468266;254;27986;-76
2022/02/17 04:55:35;;;;;;;7.40;2.10;;;9.60;99.90;;;;;;468297;254;27956;-76
2022/02/17 04:57:37;;;;;;;11.37;2.33;;;9.60;99.90;;;;;;468298;254;27966;-77
2022/02/17 04:59:38;;;;;;;9.90;2.20;;;9.50;99.90;;;;;;468262;254;28038;-77
2022/02/17 05:01:39;;;;;;;8.47;2.20;;;9.40;99.90;;;;;;468273;254;27961;-76
2022/02/17 05:03:40;;;;;;;5.30;2.27;;;9.40;99.90;;;;;;468271;254;28072;-76
2022/02/17 05:05:42;;;;;;;7.93;3.83;;;9.40;99.90;;;;;;468253;254;28045;-76
2022/02/17 05:07:43;;;;;;;10.87;3.20;;;9.40;99.90;;;;;;468258;254;27748;-76
2022/02/17 05:09:44;;;;;;;10.50;3.60;;;9.40;99.90;;;;;;468240;254;28356;-77
2022/02/17 05:11:46;;;;;;;11.97;3.00;;;9.40;99.90;;;;;;468238;254;27950;-77
2022/02/17 05:13:47;;;;;;;7.50;2.70;;;9.40;99.90;;;;;;468221;254;27451;-77
2022/02/17 05:15:48;;;;;;;14.67;3.53;;;9.40;99.90;;;;;;468288;254;28491;-76
2022/02/17 05:17:49;;;;;;;13.70;3.33;;;9.40;99.90;;;;;;468297;254;28533;-76
2022/02/17 05:19:51;;;;;;;11.40;2.50;;;9.40;99.90;;;;;;468295;254;28369;-76
2022/02/17 05:21:52;;;;;;;15.17;2.90;;;9.30;99.90;;;;;;468269;254;28441;-77
2022/02/17 05:23:53;;;;;;;10.20;2.83;;;9.30;99.90;;;;;;468278;254;27893;-77
2022/02/17 05:25:54;;;;;;;9.33;2.83;;;9.20;99.90;;;;;;468088;254;27979;-77
2022/02/17 05:27:56;;;;;;;14.17;3.80;;;9.10;99.90;;;;;;468296;254;27989;-76
2022/02/17 05:29:57;;;;;;;13.40;3.17;;;9.20;99.90;;;;;;468302;254;27447;-77
2022/02/17 05:31:58;;;;;;;9.37;3.10;;;9.20;99.90;;;;;;468267;254;28039;-76
2022/02/17 05:33:59;;;;;;;11.33;3.53;;;9.20;99.90;;;;;;468273;254;28031;-77
2022/02/17 05:36:01;;;;;;;10.67;3.20;;;9.10;99.90;;;;;;468263;254;28088;-76
2022/02/17 05:38:02;;;;;;;17.33;3.20;;;9.00;99.90;;;;;;468272;254;28057;-76
2022/02/17 05:40:03;;;;;;;12.43;2.80;;;9.00;99.90;;;;;;468287;254;27463;-76
2022/02/17 05:42:04;;;;;;;8.73;2.90;;;9.10;99.90;;;;;;468272;254;28132;-76
2022/02/17 05:44:06;;;;;;;13.93;3.90;;;9.00;99.90;;;;;;468270;254;28504;-76
2022/02/17 05:46:07;;;;;;;12.90;3.60;;;9.00;99.90;;;;;;468265;254;28184;-77
2022/02/17 05:48:08;;;;;;;12.80;3.03;;;8.90;99.90;;;;;;468283;254;28352;-76
2022/02/17 05:50:09;;;;;;;12.23;3.50;;;8.90;99.90;;;;;;468278;254;27943;-75
2022/02/17 05:52:11;;;;;;;11.00;2.73;;;8.90;99.90;;;;;;468276;254;27897;-76
2022/02/17 05:54:12;;;;;;;11.57;3.17;;;8.90;99.90;;;;;;468315;254;27933;-76
2022/02/17 05:56:13;;;;;;;15.00;3.93;;;8.90;99.90;;;;;;468270;254;27980;-75
2022/02/17 05:58:14;;;;;;;11.33;3.43;;;8.90;99.90;;;;;;468274;254;28084;-76
2022/02/17 06:00:16;;;;;;;13.80;3.20;;;8.90;99.90;;;;;;468294;254;28032;-76
2022/02/17 06:02:17;;;;;;;11.30;2.87;;;8.80;99.90;;;;;;468296;254;28095;-76
2022/02/17 06:04:18;;;;;;;11.83;3.17;;;8.80;99.90;;;;;;468271;254;27936;-76
2022/02/17 06:06:19;;;;;;;9.30;2.80;;;8.70;99.90;;;;;;468241;254;27939;-75
2022/02/17 06:08:21;;;;;;;12.67;2.77;;;8.60;99.90;;;;;;468313;254;28399;-76
2022/02/17 06:10:22;;;;;;;6.27;2.60;;;8.80;99.90;;;;;;468269;254;28216;-74
2022/02/17 06:12:24;;;;;;;8.23;2.40;;;8.80;99.90;;;;;;468228;254;28331;-76
2022/02/17 06:14:24;;;;;;;8.37;2.93;;;8.70;99.90;;;;;;468223;254;28059;-76
2022/02/17 06:16:26;;;;;;;14.67;2.53;;;8.80;99.90;;;;;;468235;254;28078;-76
2022/02/17 06:18:27;;;;;;;8.43;3.13;;;8.80;99.90;;;;;;468291;254;28051;-76
2022/02/17 06:20:28;;;;;;;18.30;3.57;;;8.80;99.90;;;;;;468249;254;27948;-76
2022/02/17 06:22:30;;;;;;;6.83;2.63;;;8.80;99.90;;;;;;468246;254;27976;-76
2022/02/17 06:24:31;;;;;;;14.43;3.30;;;8.90;99.90;;;;;;468272;254;27715;-76
2022/02/17 06:26:32;;;;;;;18.10;2.70;;;9.00;99.90;;;;;;468230;254;27828;-76
2022/02/17 06:28:33;;;;;;;12.90;3.53;;;8.90;99.90;;;;;;468286;254;27608;-76
2022/02/17 06:30:34;;;;;;;15.93;3.33;;;9.00;99.90;;;;;;468274;254;27964;-76
2022/02/17 06:32:36;;;;;;;11.70;2.83;;;9.10;99.90;;;;;;468214;254;27803;-76
2022/02/17 06:34:37;;;;;;;12.20;3.33;;;9.10;99.90;;;;;;468249;254;28081;-76
2022/02/17 06:36:38;;;;;;;12.10;3.27;;;9.10;99.90;;;;;;468223;254;28161;-76
2022/02/17 06:38:39;;;;;;;12.73;3.13;;;9.10;99.90;;;;;;468283;254;28310;-76
2022/02/17 06:40:41;;;;;;;13.73;3.67;;;9.00;99.90;;;;;;468487;254;28495;-77
2022/02/17 06:42:42;;;;;;;14.80;3.60;;;9.10;99.90;;;;;;468200;254;28335;-76
2022/02/17 06:44:43;;;;;;;16.63;3.20;;;9.10;99.90;;;;;;468256;254;27836;-76
2022/02/17 06:46:44;;;;;;;11.80;3.13;;;9.00;99.90;;;;;;468246;254;28105;-77
2022/02/17 06:48:46;;;;;;;6.93;2.57;;;8.90;99.90;;;;;;468204;254;27982;-77
2022/02/17 06:50:48;;;;;;;15.10;3.73;;;8.90;99.90;;;;;;468242;254;27816;-76
2022/02/17 06:52:48;;;;;;;16.17;3.10;;;8.90;99.90;;;;;;468139;254;28331;-76
2022/02/17 06:54:49;;;;;;;16.07;2.83;;;8.80;99.90;;;;;;468679;251;27927;-77
2022/02/17 06:56:52;;;;;;;17.47;3.20;;;8.80;99.90;;;;;;468038;254;28075;-77
2022/02/17 06:58:52;;;;;;;9.47;3.00;;;8.80;99.90;;;;;;469558;251;27875;-76
2022/02/17 07:00:53;;;;;;;13.57;3.20;;;8.80;99.90;;;;;;467076;254;27959;-76
2022/02/17 07:02:54;;;;;;;17.23;4.27;;;8.80;99.90;;;;;;469787;252;28478;-76
2022/02/17 07:04:56;;;;;;;13.73;3.80;;;8.80;99.90;;;;;;467072;254;28612;-78
2022/02/17 07:06:57;;;;;;;15.20;3.33;;;8.80;99.90;;;;;;469809;252;28541;-76
2022/02/17 07:08:58;;;;;;;13.43;3.57;;;8.80;99.90;;;;;;470518;252;28067;-76
2022/02/17 07:11:03;;;;;;;12.27;3.27;;;8.80;99.90;;;;;;468918;253;28021;-76
2022/02/17 07:13:01;;;;;;;14.53;3.40;;;8.70;99.90;;;;;;469507;253;27548;-77
2022/02/17 07:15:02;;;;;;;10.77;3.30;;;8.80;99.90;;;;;;467428;252;28025;-77
2022/02/17 07:17:03;;;;;;;8.20;3.10;;;8.80;99.90;;;;;;480861;247;28049;-77
2022/02/17 07:19:04;;;;;;;7.43;2.87;;;8.80;99.90;;;;;;470618;251;28166;-77
2022/02/17 07:21:06;;;;;;;13.57;3.60;;;8.80;99.90;;;;;;470774;252;27999;-76
2022/02/17 07:23:07;;;;;;;12.03;3.60;;;8.80;99.90;;;;;;470976;252;27941;-76
2022/02/17 07:25:08;;;;;;;15.60;3.37;;;8.90;99.90;;;;;;471025;252;27907;-77
2022/02/17 07:27:09;;;;;;;15.60;3.70;;;8.90;99.90;;;;;;470978;252;27966;-77
2022/02/17 07:29:11;;;;;;;12.13;3.60;;;8.90;99.90;;;;;;471025;252;28276;-77
2022/02/17 07:31:12;;;;;;;12.33;3.47;;;8.90;99.90;;;;;;471017;252;28524;-77
2022/02/17 07:33:13;;;;;;;20.20;3.97;;;8.90;99.90;;;;;;470845;252;28512;-77
2022/02/17 07:35:14;;;;;;;12.33;3.53;;;8.90;99.90;;;;;;470960;252;28033;-77
2022/02/17 07:37:16;;;;;;;11.77;3.20;;;8.90;99.90;;;;;;471122;252;28053;-76
2022/02/17 07:39:18;;;;;;;17.43;3.97;;;8.90;99.90;;;;;;471020;252;27636;-76
2022/02/17 07:41:18;;;;;;;11.90;3.30;;;8.90;99.90;;;;;;471056;252;28039;-78
2022/02/17 07:43:20;;;;;;;17.57;3.77;;;8.90;99.90;;;;;;470189;247;27911;-77
2022/02/17 07:45:21;;;;;;;19.13;3.57;;;9.00;99.90;;;;;;468035;253;28004;-77
2022/02/17 07:47:22;;;;;;;18.77;3.80;;;8.90;99.90;;;;;;467892;253;27902;-77
2022/02/17 07:49:24;;;;;;;12.73;3.60;;;9.00;99.90;;;;;;468240;253;27935;-76
2022/02/17 07:51:25;;;;;;;19.63;3.60;;;9.00;99.90;;;;;;467509;248;28478;-76
2022/02/17 07:53:26;;;;;;;20.37;4.07;;;9.00;99.90;;;;;;463465;256;28466;-76
2022/02/17 07:55:28;;;;;;;14.97;4.50;;;9.00;99.90;;;;;;472952;251;28445;-77
2022/02/17 07:57:29;;;;;;;16.37;4.03;;;9.00;99.90;;;;;;472973;251;27676;-74
2022/02/17 07:59:30;;;;;;;14.03;4.10;;;8.90;99.90;;;;;;472955;251;27938;-77
2022/02/17 08:01:31;;;;;;;15.37;4.00;;;8.90;99.90;;;;;;472930;251;27838;-76
2022/02/17 08:03:33;;;;;;;20.00;4.00;;;9.00;99.90;;;;;;472868;251;27904;-77
2022/02/17 08:05:34;;;;;;;11.90;4.03;;;9.00;99.90;;;;;;472822;251;28066;-77
2022/02/17 08:07:37;;;;;;;14.53;4.00;;;9.00;99.90;;;;;;472916;251;27953;-76
2022/02/17 08:09:37;;;;;;;16.33;4.23;;;9.00;99.90;;;;;;472793;251;27783;-76
2022/02/17 08:11:37;;;;;;;20.70;4.70;;;9.00;99.90;;;;;;472885;251;28291;-77
2022/02/17 08:13:39;;;;;;;15.63;3.47;;;9.00;99.90;;;;;;472801;251;28488;-77
2022/02/17 08:15:40;;;;;;;9.83;3.53;;;9.00;99.90;;;;;;472941;251;28419;-77
2022/02/17 08:17:41;;;;;;;11.30;3.73;;;9.00;99.90;;;;;;472962;251;28394;-77
2022/02/17 08:19:42;;;;;;;12.50;3.80;;;9.00;99.90;;;;;;472947;251;27775;-76
2022/02/17 08:21:44;;;;;;;18.90;4.20;;;9.00;99.90;;;;;;472954;251;27941;-77
2022/02/17 08:23:45;;;;;;;20.50;4.07;;;9.00;99.90;;;;;;472665;248;28035;-77
2022/02/17 08:25:46;;;;;;;13.40;3.73;;;8.90;99.90;;;;;;472741;250;27975;-77
2022/02/17 08:27:47;;;;;;;14.50;3.70;;;8.90;99.90;;;;;;472939;251;28493;-76
2022/02/17 08:29:49;;;;;;;18.13;4.70;;;9.00;99.90;;;;;;472939;251;28385;-77
2022/02/17 08:31:50;;;;;;;14.50;4.33;;;9.00;99.90;;;;;;473118;251;28073;-76
2022/02/17 08:33:51;;;;;;;15.60;3.50;;;9.10;99.90;;;;;;474117;249;27684;-77
2022/02/17 08:35:52;;;;;;;18.80;4.60;;;9.00;99.90;;;;;;474242;249;28183;-77
2022/02/17 08:37:56;;;;;;;14.70;3.63;;;9.00;99.90;;;;;;474284;249;28397;-77
2022/02/17 08:39:55;;;;;;;19.90;4.47;;;9.00;99.90;;;;;;474188;251;28163;-77
2022/02/17 08:41:56;;;;;;;15.37;4.63;;;8.90;99.90;;;;;;474328;249;28195;-78
2022/02/17 08:43:57;;;;;;;24.23;4.47;;;9.00;99.90;;;;;;474252;249;28249;-76
2022/02/17 08:45:59;;;;;;;19.43;4.80;;;9.00;99.90;;;;;;474317;249;27683;-77
2022/02/17 08:48:00;;;;;;;20.93;3.97;;;9.00;99.90;;;;;;474277;249;28126;-77
2022/02/17 08:50:01;;;;;;;20.37;4.43;;;8.90;99.90;;;;;;474241;249;28071;-77
2022/02/17 08:52:02;;;;;;;23.27;5.30;;;8.90;99.90;;;;;;474315;249;28087;-77
2022/02/17 08:54:04;;;;;;;21.10;4.83;;;9.00;99.90;;;;;;478008;247;27960;-76
2022/02/17 08:56:05;;;;;;;19.63;4.30;;;9.00;99.90;;;;;;480867;247;27939;-77
2022/02/17 08:58:06;;;;;;;16.67;4.13;;;9.00;99.90;;;;;;481036;247;28036;-77
2022/02/17 09:00:08;;;;;;;23.67;4.93;;;9.00;99.90;;;;;;480931;247;27943;-77
2022/02/17 09:02:09;;;;;;;30.87;5.10;;;9.10;99.90;;;;;;481554;247;28083;-76
2022/02/17 09:04:11;;;;;;;19.70;4.83;;;;;;;;;;466493;253;28463;-77
2022/02/17 09:06:14;;;;;;;23.83;4.90;;;;;;;;;;481984;246;27336;-77
2022/02/17 09:08:14;;;;;;;27.43;5.17;;;9.00;99.90;;;;;;482059;245;27257;-77
2022/02/17 09:10:15;;;;;;;19.03;4.40;;;9.10;99.90;;;;;;482022;247;27969;-77
2022/02/17 09:12:17;;;;;;;17.97;4.77;;;9.00;99.90;;;;;;481886;247;27910;-77
2022/02/17 09:14:18;;;;;;;27.43;5.83;;;9.00;99.90;;;;;;481894;247;28302;-77
2022/02/17 09:16:19;;;;;;;26.90;5.47;;;9.10;99.90;;;;;;481890;247;29276;-77
2022/02/17 09:18:20;;;;;;;23.20;5.60;;;9.10;99.90;;;;;;481655;247;28612;-76
2022/02/17 09:20:22;;;;;;;20.97;5.47;;;9.10;99.90;;;;;;481770;247;27986;-77
2022/02/17 09:22:23;;;;;;;23.43;5.50;;;9.20;99.90;;;;;;482096;247;28046;-77
2022/02/17 09:24:24;;;;;;;18.50;4.67;;;9.20;99.90;;;;;;482201;247;27993;-77
2022/02/17 09:26:26;;;;;;;19.13;4.40;;;9.30;99.90;;;;;;482360;247;28017;-77
2022/02/17 09:28:27;;;;;;;21.03;4.57;;;9.40;99.90;;;;;;482248;247;28253;-77
2022/02/17 09:30:28;;;;;;;28.90;5.03;;;9.40;99.90;;;;;;482308;247;28201;-77
2022/02/17 09:32:29;;;;;;;24.83;5.10;;;9.30;99.90;;;;;;482298;247;27730;-77
2022/02/17 09:34:30;;;;;;;18.93;5.40;;;9.30;99.90;;;;;;482250;247;27972;-76
2022/02/17 09:36:32;;;;;;;28.00;5.03;;;9.30;99.90;;;;;;482168;247;27998;-78
2022/02/17 09:38:33;;;;;;;25.27;5.87;;;9.30;99.90;;;;;;482236;247;28011;-78
2022/02/17 09:40:34;;;;;;;28.33;5.67;;;9.30;99.90;;;;;;482181;247;28445;-78
2022/02/17 09:42:38;;;;;;;21.93;4.30;;;9.20;99.90;;;;;;481614;247;28495;-77
2022/02/17 09:44:37;;;;;;;18.23;5.23;;;9.10;99.90;;;;;;470102;251;29287;-77
2022/02/17 09:46:45;;;;;;;18.70;4.67;;;;;;;;;;471735;251;27921;-77
2022/02/17 09:48:42;;;;;;;24.40;5.30;;;;;;;;;;473629;251;26807;-75
2022/02/17 09:50:48;;;;;;;17.17;5.00;;;;;;;;;;466480;252;27052;-77
2022/02/17 09:52:52;;;;;;;18.67;4.63;;;;;;;;;;476311;249;26862;-78
2022/02/17 09:54:54;;;;;;;19.03;4.97;;;;;;;;;;469758;252;26698;-78
2022/02/17 09:56:55;;;;;;;23.93;5.90;;;9.20;99.90;;;;;;476256;249;27503;-78
2022/02/17 09:58:56;;;;;;;15.03;4.13;;;8.50;99.90;;;;;;476038;249;28004;-77
2022/02/17 10:00:58;;;;;;;15.97;4.60;;;8.40;99.90;;;;;;476029;249;27677;-75
2022/02/17 10:02:59;;;;;;;19.70;4.57;;;8.30;99.90;;;;;;475747;248;28024;-77
2022/02/17 10:05:00;;;;;;;22.90;4.70;;;8.20;99.90;;;;;;474698;248;28703;-76
2022/02/17 10:07:01;;;;;;;16.20;4.50;;;8.20;99.90;;;;;;474696;250;28307;-76
2022/02/17 10:09:03;;;;;;;22.90;5.83;;;8.10;99.90;;;;;;474724;250;28385;-75
2022/02/17 10:11:04;;;;;;;26.47;4.80;;;8.00;99.90;;;;;;474731;250;29824;-78
2022/02/17 10:13:05;;;;;;;16.57;5.60;;;8.00;99.90;;;;;;474691;250;28033;-78
2022/02/17 10:15:06;;;;;;;22.20;4.60;;;8.00;99.90;;;;;;474688;249;28129;-77
2022/02/17 10:17:09;;;;;;;22.20;4.40;;;8.00;99.90;;;;;;474758;250;27901;-75
2022/02/17 10:19:10;;;;;;;15.70;4.33;;;8.00;99.90;;;;;;474763;250;28527;-76
2022/02/17 10:21:13;;;;;;;15.00;4.80;;;7.90;99.90;;;;;;474678;250;28036;-77
2022/02/17 10:23:11;;;;;;;21.00;5.57;;;7.90;99.90;;;;;;474677;250;28104;-77
2022/02/17 10:25:13;;;;;;;20.93;4.57;;;7.90;99.90;;;;;;474587;250;28013;-77
2022/02/17 10:27:14;;;;;;;14.67;4.40;;;7.90;99.90;;;;;;478128;245;28145;-77
2022/02/17 10:29:15;;;;;;;20.00;4.10;;;8.00;99.90;;;;;;484731;245;27989;-77
2022/02/17 10:31:16;;;;;;;21.23;5.17;;;8.10;99.90;;;;;;484393;245;27821;-77
2022/02/17 10:33:18;;;;;;;20.17;5.13;;;8.30;99.90;;;;;;467682;254;28523;-77
2022/02/17 10:35:19;;;;;;;24.10;4.93;;;8.50;99.90;;;;;;484666;245;28366;-76
2022/02/17 10:37:20;;;;;;;18.17;4.87;;;8.70;99.90;;;;;;484997;245;28570;-76
2022/02/17 10:39:26;;;;;;;16.30;3.97;;;8.80;99.90;;;;;;467869;254;28461;-77